Listado único de aspirantes (Periodo de valoración 31 octubre de 2018)


* Listado ordenado por el total Autobaremo. Recuerde que también puede ordenarlo por Apellidos, Nombre

Listado único de aspirantes admitidos en turno libre en la bolsa de selección de personal estatutario temporal, categoría: Enfermera-Area de Neonatología
Apellidos, Nombre Exp. SAS Auto. Exp. NO SAS Auto. Form. Auto. otros méritos Total Auto. Exp. SAS Baremo Exp. NO SAS Baremo Form. Baremo Otros méritos Punt. Total Baremo Fecha Act.
DEL MORAL RODRIGUEZ, ESTHER 49,800 8,100 42,000 20,000 117,000 49,800 8,100 36,000 7,200 98,200 20/05/2019
JIMENEZ CHAMORRO, ALICIA 48,900 7,600 42,000 20,000 117,000 48,900 7,600 42,000 1,000 98,000 20/05/2019
MEGÍAS PERALTA, MONTSERRAT 55,000 8,000 42,000 19,100 116,100 55,000 7,100 42,000 8,800 105,800 20/05/2019
ALVAREZ CARRETERO, LETICIA 52,500 3,000 39,000 20,000 114,000 52,500 3,000 39,000 14,025 108,025 20/05/2019
CABALLERO BOLAÑOS, MARIA ISABEL 55,000 5,400 39,000 20,000 114,000 55,000 5,400 39,000 2,000 96,000 20/05/2019
MORENO SALMERON, MARIA DEL PILAR 41,700 20,400 39,000 20,000 114,000 41,700 20,400 39,000 18,100 112,100 20/05/2019
MUIÑO AGUILAR, ELISA 55,000 7,200 39,000 20,000 114,000 55,000 7,200 39,000 2,000 96,000 20/05/2019
HERNÁNDEZ LIROLA, MARIA LUISA 24,950 27,000 42,000 20,000 113,950 24,950 27,000 42,000 5,025 98,975 20/05/2019
ALVAREZ PUGA, MARIA BELEN 55,000 9,900 39,000 19,650 113,650 55,000 0,900 38,000 10,950 103,950 20/05/2019
CORREA CASADO, MARIA DEL MAR 55,000 0,000 39,000 18,450 112,450 55,000 0,000 39,000 11,550 105,550 20/05/2019
RICO CANO, ANTONIO 48,600 7,000 39,000 17,400 111,400 48,600 7,000 39,000 10,250 104,250 20/05/2019
DIAZ ALIAS, MARIA ISABEL 51,000 10,200 36,000 20,000 111,000 51,000 10,200 36,000 1,000 92,000 20/05/2019
DOMINGUEZ ROBLES, RAQUEL 55,000 0,000 36,000 20,000 111,000 55,000 0,000 36,000 17,050 108,050 20/05/2019
MARTINEZ VILAR, ANA DEL ROSARIO 46,800 9,300 36,000 20,000 111,000 46,800 9,300 36,000 17,750 108,750 20/05/2019
NIETO SANTANDER, ROSA MARIA 51,000 12,300 36,000 20,000 111,000 51,000 0,000 36,000 14,075 101,075 20/05/2019
RUIZ SORROCHE, Mª MERCEDES 55,000 0,000 36,000 20,000 111,000 55,000 0,000 36,000 11,650 102,650 20/05/2019
SÁNCHEZ RICO, RAÚL 45,000 13,500 36,000 20,000 111,000 45,000 13,500 36,000 3,350 94,350 20/05/2019
SANCHEZ PEREZ, MONTSERRAT 51,600 0,000 39,000 20,000 110,600 51,600 0,000 39,000 2,300 92,900 20/05/2019
GALERA GARCIA, ALICIA 0,100 51,200 39,000 20,000 110,300 0,100 51,200 39,000 11,925 102,225 20/05/2019
VILCHEZ JESUS, ISABEL 53,700 0,200 36,000 20,000 109,900 53,700 0,000 36,000 17,600 107,300 20/05/2019
PEREZ COLLADO, ELISA MARIA 49,800 0,900 39,000 20,000 109,700 49,800 0,900 39,000 12,550 102,250 20/05/2019
RODRÍGUEZ MONGE, MIGUEL ANGEL 46,500 3,900 39,000 20,000 109,400 46,500 0,000 39,000 14,000 99,500 20/05/2019
MOLINA FERNANDEZ, MATILDE 49,500 6,900 36,000 18,375 109,375 49,500 6,900 36,000 0,075 91,075 20/05/2019
ENRÍQUEZ CEJUDO, ANTONIA CARMEN 55,000 0,000 39,000 15,350 109,350 55,000 0,000 39,000 9,350 103,350 20/05/2019
TROFIN TROFIN, LUMINITA CORINA 32,400 26,850 36,000 18,300 109,300 32,400 26,400 36,000 0,100 91,100 20/05/2019
SANZ LOPEZ, BEGOÑA 48,000 7,700 36,000 17,775 108,775 48,000 7,700 36,000 11,575 102,575 20/05/2019
PARRA PARRA, YOLANDA 48,900 2,700 39,000 17,750 108,350 48,900 2,700 39,000 15,150 105,750 20/05/2019
GARCIA JIMENEZ, ASUNCION 55,000 2,100 33,000 20,000 108,000 55,000 2,100 33,000 1,000 89,000 20/05/2019
CABALLERO BOLAÑOS, SOFIA 45,300 3,600 39,000 20,000 107,900 45,300 3,600 39,000 0,000 87,900 20/05/2019
MORATO FERNANDEZ, ESTHER MARIA 28,200 20,400 39,000 20,000 107,600 28,200 20,400 39,000 1,000 88,600 20/05/2019
COBOS CARVAJAL, MARÍA JOSÉ 23,400 24,900 39,000 20,000 107,300 23,400 24,900 39,000 20,000 107,300 20/05/2019
GONZALEZ GUILLEN, ANA ISABEL 51,000 0,000 36,000 20,000 107,000 51,000 0,000 36,000 20,000 107,000 20/05/2019
LOZANO LÓPEZ, BEATRIZ 0,000 47,850 39,000 20,000 106,850 0,000 47,850 39,000 20,000 106,850 20/05/2019
GOMEZ LOPEZ, CARMEN 34,500 15,900 39,000 17,325 106,725 34,500 15,900 35,000 6,525 91,925 20/05/2019
CRISTÓBAL CAÑADAS, DELIA 40,200 19,800 39,000 12,650 106,650 40,200 19,800 39,000 10,000 104,000 20/05/2019
LIRIA FERNÁNDEZ, JULIA MARÍA 49,800 6,900 39,000 12,350 106,350 49,800 6,900 39,000 1,000 95,000 20/05/2019
NIEVAS ESCORIZA, Mª ANGUSTIAS 55,000 1,700 45,000 6,200 106,200 55,000 1,700 42,000 5,825 102,825 20/05/2019
LIRIO GUZMAN, MARIA JOSE 46,800 3,200 36,000 20,000 106,000 46,800 0,000 36,000 12,475 95,275 20/05/2019
GORDITO DE LA CERDA, EVA Mª 55,000 4,950 39,000 11,950 105,950 55,000 4,950 39,000 3,025 97,025 20/05/2019
SANCHEZ MARTIN, ROCIO INMACULADA 32,100 26,400 36,000 14,900 105,900 32,100 26,400 36,000 12,600 103,600 20/05/2019
RODRÍGUEZ SALINAS, MARÍA DEL MAR 46,800 0,000 39,000 20,000 105,800 46,800 0,000 39,000 15,150 100,950 20/05/2019
ÁLVAREZ SAMANIEGO, GERMÁN 44,700 5,000 36,000 20,000 105,700 44,700 5,000 36,000 17,200 102,900 20/05/2019
GOMEZ FERNANDEZ, FRANCISCO JAVIER 39,600 22,200 39,000 11,650 105,650 39,600 22,200 39,000 8,900 102,900 20/05/2019
SÁNCHEZ RAMÓN, MARÍA DEL CARMEN 55,000 0,900 39,000 11,600 105,600 55,000 0,000 39,000 9,800 103,800 20/05/2019
ALABARCE FORNES, SILVIA 44,400 5,100 36,000 20,000 105,500 44,400 5,100 36,000 11,150 96,650 20/05/2019
PRIETO VILLEGAS, AGUEDA 55,000 0,000 36,000 14,200 105,200 55,000 0,000 36,000 5,600 96,600 20/05/2019
MARTINEZ OLIVARES, MANUEL 55,000 0,000 36,000 14,175 105,175 55,000 0,000 36,000 8,650 99,650 20/05/2019
MIRALLES MARTINEZ, FRANCISCA 48,300 0,000 36,000 20,000 104,300 48,300 0,000 36,000 20,000 104,300 20/05/2019
MARTINEZ SANCHEZ, ROSA MARIA 55,000 1,700 39,000 10,050 104,050 55,000 1,500 39,000 8,400 102,400 20/05/2019
BALSERA TREJO, ANTONIO RUFINO 49,800 17,700 41,000 8,000 104,000 49,800 17,700 36,000 4,100 95,100 20/05/2019
DIEZ DE LOS RIOS RUBIO, ANTONIO A 48,000 0,000 36,000 20,000 104,000 48,000 0,000 36,000 19,700 103,700 20/05/2019
CORPAS RODRIGUEZ, CRISTINA 47,400 14,400 36,000 12,925 103,925 47,400 14,400 36,000 7,225 98,225 20/05/2019
ARCOS ARCOS, ESTELA DEL MAR 55,000 6,300 36,000 12,700 103,700 55,000 0,000 36,000 7,900 98,900 20/05/2019
GARCÍA SÁEZ, FRANCISCA NATALIA 41,100 6,600 36,000 20,000 103,700 41,100 6,600 36,000 0,300 84,000 20/05/2019
PEREZ BERNAL, MANUELA 35,100 12,600 36,000 20,000 103,700 35,100 12,600 36,000 13,500 97,200 20/05/2019
MORCILLO GARCIA, JUANA 54,900 2,100 36,000 12,500 103,500 54,900 2,100 36,000 9,500 100,500 20/05/2019
MANZANO MORENO, JUAN LUIS 50,700 12,300 39,000 9,375 103,375 50,700 12,300 39,000 1,200 95,200 20/05/2019
CARMONA GUIRADO, ANDRÉS JESÚS 42,900 0,000 42,000 18,450 103,350 42,900 0,000 42,000 16,150 101,050 20/05/2019
LOPEZ MOLINA, ROSA MARIA 42,900 21,000 37,000 11,350 103,350 42,900 21,000 37,000 9,250 101,250 20/05/2019
BERROCAL MOLINA, ALICIA 54,300 7,800 39,000 9,200 103,200 54,300 7,800 39,000 8,300 102,300 20/05/2019
BRAVO CRIADO, MARIA DEL CARMEN 55,000 0,000 39,000 9,200 103,200 55,000 0,000 39,000 4,550 98,550 20/05/2019
RUIZ GARAY, NOELIA 51,900 6,000 42,000 6,200 103,200 51,900 6,000 39,000 3,200 97,200 20/05/2019
MEDINA MORENO, INMACULADA 47,700 3,300 39,000 12,925 102,925 47,700 3,300 39,000 7,125 97,125 20/05/2019
BOHORQUEZ SANCHEZ, VICTOR 52,200 8,700 43,000 4,850 102,850 52,200 7,800 38,000 4,150 97,150 20/05/2019
HARO CASADO, Mª CARMEN 43,500 0,000 39,000 20,000 102,500 43,500 0,000 39,000 0,000 82,500 20/05/2019
QUERO BAENA, JOSE 0,000 62,700 36,000 11,375 102,375 0,000 55,900 36,000 6,025 97,025 20/05/2019
FERNÁNDEZ DÍAZ, NOEMÍ 48,000 0,000 39,000 15,350 102,350 48,000 0,000 36,000 13,050 97,050 20/05/2019
GARCÍA GUZMÁN, JOSÉ MIGUEL 40,800 30,000 42,000 5,200 102,200 40,800 28,200 39,000 2,900 96,900 20/05/2019
JIMÉNEZ LÓPEZ, MARI CARMEN 53,700 9,600 37,000 10,200 102,200 53,700 9,600 37,000 9,000 101,000 20/05/2019
MOLINA GOMEZ, VANESSA 46,200 0,000 36,000 20,000 102,200 46,200 0,000 36,000 16,625 98,825 20/05/2019
CARRIQUE HEREDIA, MARÍA DEL MAR 55,000 0,000 39,000 8,100 102,100 55,000 0,000 39,000 7,100 101,100 20/05/2019
SANCHEZ GUILLEN, CARMEN VERONICA 39,300 17,700 32,000 15,100 102,100 39,300 17,700 32,000 1,200 88,200 20/05/2019
LATORRE MORALES, Mª CARMEN 54,600 4,900 36,000 11,050 102,050 54,600 4,900 36,000 6,800 97,800 20/05/2019
HUERTAS PEREZ, MARIA MERCEDES 38,700 7,200 36,000 20,000 101,900 38,700 7,200 36,000 20,000 101,900 20/05/2019
SEGURA GONZALVEZ, SUSANA 20,400 24,550 39,000 17,900 101,850 20,400 24,450 39,000 6,400 90,250 20/05/2019
NARANJO FABRA, SUSANA 42,600 2,900 39,000 17,300 101,800 42,600 2,900 39,000 5,100 89,600 20/05/2019
ÁLVAREZ GALLARDO, ANA MARÍA 50,400 1,200 36,000 14,175 101,775 50,400 1,200 36,000 12,775 100,375 20/05/2019
LOPEZ PINILLA, SANDRA 45,600 0,000 36,000 20,000 101,600 45,600 0,000 36,000 12,200 93,800 20/05/2019
PIMENTEL RUIZ, ANA ALMUDENA 6,300 52,200 36,000 10,575 101,575 6,300 52,200 36,000 9,075 100,075 20/05/2019
CARRASCO RACERO, Mª MERCEDES 46,450 2,850 36,000 16,175 101,475 46,450 2,850 36,000 11,850 97,150 20/05/2019
APARICIO PAREDES, GRACIA CRISTINA 9,900 33,500 38,000 20,000 101,400 9,900 30,900 38,000 0,000 78,800 20/05/2019
MORALES RUEDA, ARACELI 42,300 0,000 39,000 20,000 101,300 42,300 0,000 39,000 20,000 101,300 20/05/2019
GIJON GONZALEZ, SOFIA INMACULADA 45,300 16,800 36,000 10,175 101,175 45,300 16,800 36,000 6,775 97,775 20/05/2019
GARCIA PENDON, ANTONIA 55,000 1,100 39,000 7,100 101,100 55,000 0,000 39,000 5,700 99,700 20/05/2019
ROLDAN GONZALEZ, MARIA TERESA 55,000 0,000 37,000 8,850 100,850 55,000 0,000 37,000 2,950 94,950 20/05/2019
ROMERO SALDAÑA, MARIA 48,300 5,100 36,000 11,350 100,750 48,300 5,100 36,000 5,150 94,550 20/05/2019
MONTERO GOMEZ, RAFAELA 55,000 9,300 39,000 6,575 100,575 55,000 9,300 39,000 2,300 96,300 20/05/2019
MARTOS MARTÍNEZ, ISABEL 27,900 10,650 42,000 20,000 100,550 27,900 10,650 42,000 15,075 95,625 20/05/2019
VIDAL FERNANDEZ, GERMAN 51,000 17,400 39,000 6,450 100,450 51,000 17,400 39,000 3,050 97,050 20/05/2019
HERNANDEZ FLORES, MARIA DEL MAR 38,400 6,000 36,000 20,000 100,400 38,400 6,000 36,000 19,700 100,100 20/05/2019
VAZQUEZ RUIZ, MARIA DE LA LUZ 46,800 15,300 39,000 6,400 100,400 46,800 15,300 39,000 4,600 98,600 20/05/2019
FERNANDEZ DE BENITO, FRANCISCA 44,100 0,100 36,000 20,000 100,200 44,100 0,100 36,000 17,850 98,050 20/05/2019
LÓPEZ DÍAZ, RAQUEL 55,000 0,000 36,000 9,150 100,150 55,000 0,000 36,000 3,125 94,125 20/05/2019
GARCIA HERNANDEZ, MARIA IRENE 55,000 13,800 42,000 3,100 100,100 55,000 13,800 42,000 2,500 99,500 20/05/2019
LORA RAMOS, MARIA JOSE 29,100 18,000 42,000 11,000 100,100 29,100 18,000 39,000 1,000 87,100 20/05/2019
GARCIA FERNANDEZ, ADELINA 55,000 15,600 39,000 6,050 100,050 55,000 15,600 39,000 3,500 97,500 20/05/2019
CARDONA GÁLVEZ, MARIA BELÉN 42,600 12,900 36,000 9,000 100,000 42,600 12,300 36,000 0,000 90,900 20/05/2019
GARCIA RAMON, ELIZABETH 55,000 0,000 36,000 9,000 100,000 55,000 0,000 36,000 1,400 92,400 20/05/2019
ESPILDORA GONZALEZ, MARIA JOSE 55,000 0,000 39,000 5,950 99,950 55,000 0,000 39,000 3,300 97,300 20/05/2019
GODOY CEJUDO, MARIA ISABEL 55,000 0,000 39,000 5,800 99,800 55,000 0,000 39,000 5,200 99,200 20/05/2019
PEÑA MALAGON, MARIA ROSARIO 42,000 11,700 36,000 10,100 99,800 42,000 11,700 36,000 2,000 91,700 20/05/2019
TORRICO SANCHEZ, SARA 55,000 0,000 39,000 5,550 99,550 55,000 0,000 39,000 3,200 97,200 20/05/2019
MANCHEÑO MORALES, ROSALIA 40,000 17,550 41,000 3,450 99,450 40,000 17,550 39,000 2,075 96,075 20/05/2019
MUÑOZ VÍLCHEZ, ELSA MARÍA 51,300 1,100 39,000 8,050 99,450 51,300 1,100 39,000 4,100 95,500 20/05/2019
DIAZ PORTILLO, INMACULADA 55,000 0,000 42,000 2,350 99,350 55,000 0,000 42,000 2,000 99,000 20/05/2019
CANTIZANO NUÑEZ, MARIA JOSE 55,000 0,000 36,000 8,250 99,250 55,000 0,000 36,000 5,650 96,650 20/05/2019
GARCIA MAYOR DE LOND PEREZ, Mº DOLORES 55,000 0,000 39,000 5,250 99,250 55,000 0,000 39,000 3,400 97,400 20/05/2019
RAMOS CAMACHO, YÉSICA MARÍA 12,000 31,200 36,000 20,000 99,200 12,000 31,200 36,000 19,925 99,125 20/05/2019
RODRÍGUEZ PORCEL, MARÍA DOLORES 17,700 25,500 36,000 20,000 99,200 17,700 1,500 36,000 16,100 71,300 20/05/2019
CASARES PEREZ, AMELIA 36,400 13,500 36,000 13,250 99,150 36,400 13,500 36,000 4,600 90,500 20/05/2019
CASTILLO ALARCÓN, ISABEL 6,900 41,400 36,000 14,775 99,075 6,900 41,400 36,000 8,300 92,600 20/05/2019
DE LA FUENTE FLORIDO, PATRICIA 43,500 24,300 42,000 2,000 99,000 43,500 13,500 42,000 2,000 99,000 20/05/2019
JIMÉNEZ NÚÑEZ, MARIA ISABEL 55,000 0,000 39,000 4,950 98,950 55,000 0,000 39,000 3,300 97,300 20/05/2019
RASHID JIMENEZ, MIRIAM 54,000 2,500 39,000 4,725 98,725 54,000 2,500 39,000 3,725 97,725 20/05/2019
LORES GANAZA, CARMEN 55,000 3,300 39,000 4,700 98,700 55,000 3,300 39,000 4,200 98,200 20/05/2019
ALBA MARTÍN, RAQUEL 22,800 19,800 36,000 20,000 98,600 22,800 1,200 36,000 20,000 80,000 20/05/2019
NAVARRO BERMÚDEZ, NOELIA MARIA 22,200 35,400 36,000 7,475 98,475 22,200 35,400 36,000 3,425 94,425 20/05/2019
REVILLA ALCALA, ISABEL 55,000 12,600 42,000 1,325 98,325 55,000 4,200 39,000 1,025 95,025 20/05/2019
SERRANO BERNI, ROSALIA 50,100 6,900 38,000 5,300 98,300 50,100 6,900 38,000 3,200 96,200 20/05/2019
DE TORO GARCIA, ENCARNACION 52,200 5,500 39,000 4,250 98,250 52,200 5,500 39,000 3,400 97,400 20/05/2019
MORALES MARÍN, Mª ANGELES 9,900 40,200 39,000 9,150 98,250 9,900 40,200 39,000 5,350 94,450 20/05/2019
DE LA BARRERA TORRES, VICTORIA EUGENIA 55,000 3,700 39,000 4,050 98,050 55,000 3,700 39,000 3,750 97,750 20/05/2019
ORDOÑEZ COSA, SILVIA 54,000 6,600 42,000 1,050 98,050 54,000 6,600 42,000 1,000 98,000 20/05/2019
PEREZ VALENZUELA, JOSE MARIA 55,000 3,600 36,000 7,025 98,025 55,000 3,600 36,000 5,625 96,625 20/05/2019
OTERO LASTORTRES, ALMUDENA 38,100 0,900 39,000 20,000 98,000 38,100 0,000 39,000 1,900 79,000 20/05/2019
CRUZ CABRERA, INMACULADA 49,500 1,500 39,000 7,925 97,925 49,500 1,500 39,000 4,925 94,925 20/05/2019
FERNANDEZ CUBILLO, CARMEN 13,800 40,950 36,000 7,150 97,900 13,800 40,950 36,000 3,350 94,100 20/05/2019
SÁNCHEZ RAMÓN, ANA MELCHORA 49,200 5,700 34,000 9,000 97,900 49,200 5,700 34,000 8,000 96,900 20/05/2019
DAFONTE PEREZ, ANA 48,600 5,350 41,000 2,925 97,875 48,600 5,350 38,000 2,625 94,575 20/05/2019
JARANA BOY, DANIEL 52,800 9,500 39,000 3,800 97,800 52,800 9,300 36,000 3,150 94,150 20/05/2019
LOPEZ RINCON, MERCEDES 35,700 40,800 39,000 3,800 97,800 35,700 40,800 39,000 2,900 96,900 20/05/2019
GARCIA SANCHEZ, CATALINA ISABEL 41,400 4,400 36,000 15,950 97,750 41,400 4,400 36,000 8,650 90,450 20/05/2019
MARQUEZ GUTIERREZ, RAQUEL LOURDES 55,000 0,000 39,000 3,750 97,750 55,000 0,000 39,000 1,300 95,300 20/05/2019
TORRES MIRAS, ALICIA 10,800 36,300 39,000 11,650 97,750 10,800 36,300 39,000 4,900 91,000 20/05/2019
REYES LEIVA, ADELAIDA 16,500 25,200 36,000 20,000 97,700 16,500 25,200 36,000 18,600 96,300 20/05/2019
TORRES LUZÓN, CRISTINA 1,800 40,950 45,000 9,950 97,700 1,800 40,650 42,000 7,475 91,925 20/05/2019
PIÑAR OYA, CRISTINA 3,900 42,300 36,000 15,450 97,650 3,900 42,300 36,000 2,550 84,750 20/05/2019
FERNANDEZ MATEOS, SONIA MARIA 52,500 8,600 39,000 3,625 97,625 52,500 8,600 39,000 2,525 96,525 20/05/2019
CAMUÑEZ DE REYES, INMACULADA 39,300 24,700 34,000 8,600 97,600 39,300 23,100 34,000 2,100 91,100 20/05/2019
MORA PAZOS, ASCENSIÓN 53,100 4,200 39,000 3,600 97,600 53,100 4,200 39,000 2,700 96,700 20/05/2019
MORENO BECERRA, MARIA TERESA 55,000 2,700 39,000 3,600 97,600 55,000 0,000 39,000 2,350 96,350 20/05/2019
NARANJO RENDON, MIRIAM 52,200 8,000 36,000 6,500 97,500 52,200 7,500 36,000 5,000 96,000 20/05/2019
RUEDA SEGURA, JUANA 47,100 12,850 39,000 3,475 97,475 47,100 12,850 39,000 2,875 96,875 20/05/2019
DUQUE SÁNCHEZ, ANTONIA 55,000 0,000 41,000 1,450 97,450 55,000 0,000 35,000 1,100 91,100 20/05/2019
CARREIRA PASTOR, MARIA JOSE 55,000 1,500 39,000 3,425 97,425 55,000 1,500 39,000 2,825 96,825 20/05/2019
SANCHEZ LEAL, MARIA DE LA LUZ 52,200 17,550 39,000 3,400 97,400 52,200 17,550 36,000 2,000 93,000 20/05/2019
SANTIAGO MARQUEZ, MIGUEL ANGEL 34,800 24,300 39,000 3,400 97,400 34,800 24,300 39,000 1,100 95,100 20/05/2019
JIMENEZ MARMOL, JOSE FRANCISCO 42,000 10,800 36,000 8,550 97,350 42,000 10,800 36,000 7,950 96,750 20/05/2019
QUESADA MARTINEZ, MARIA INMACULADA 31,200 12,000 36,000 18,150 97,350 31,200 12,000 36,000 13,600 92,800 20/05/2019
MIRANDA GARCIA, JOSE 55,000 0,900 39,000 3,300 97,300 55,000 0,900 39,000 2,100 96,100 20/05/2019
GONZÁLEZ ALAMINOS, MARINA 48,000 7,700 39,000 3,200 97,200 48,000 7,700 39,000 3,100 97,100 20/05/2019
PEREZ ORTEGA, ANABELÉN 54,600 2,100 36,000 6,200 97,200 54,600 2,100 36,000 3,050 94,050 20/05/2019
SANCHEZ VICO, MARIA DOLORES 42,300 30,000 39,000 3,200 97,200 42,300 30,000 39,000 1,000 95,000 20/05/2019
CAMACHO MATEOS, ANA MARIA 42,000 14,700 42,000 0,100 97,100 42,000 14,700 42,000 0,000 97,000 20/05/2019
CASTILLO OLLER, FRANCISCO JAVIER 54,900 9,300 34,000 8,100 97,100 54,900 9,300 34,000 8,100 97,100 20/05/2019
COBOS VELASCO, ELISA 55,000 0,000 39,000 3,100 97,100 55,000 0,000 39,000 2,150 96,150 20/05/2019
LÓPEZ ESPADAFOR, Mª ROSARIO 54,600 1,200 39,000 3,000 97,000 54,600 1,200 39,000 0,000 94,000 20/05/2019
VILLALTA GARCIA, JOSE MARIA 40,500 10,500 36,000 10,000 97,000 40,500 10,500 36,000 0,000 87,000 20/05/2019
RODRIGUEZ PARDO, Mª LOURDES 55,000 0,000 39,000 2,900 96,900 55,000 0,000 39,000 2,000 96,000 20/05/2019
MORALES SANCHEZ, BELINDA 14,700 35,300 35,000 11,850 96,850 14,700 31,500 35,000 7,050 88,250 20/05/2019
JIMENEZ LIRIA, MARIA JOSE 0,500 75,250 39,000 2,825 96,825 0,500 53,650 38,000 1,100 93,250 20/05/2019
ARCOS LOPEZ, LUCIA 37,800 0,000 39,000 20,000 96,800 37,800 0,000 39,000 12,600 89,400 20/05/2019
BUENO PIÑERO, MARIA SOLEDAD 39,000 16,200 39,000 2,800 96,800 39,000 16,200 36,000 2,200 93,200 20/05/2019
GARCIA CARRILLO, MARIA 55,000 1,200 39,000 2,800 96,800 55,000 0,000 39,000 2,800 96,800 20/05/2019
FERNANDEZ CALZADO, JOSEFINA 55,000 12,600 36,000 5,775 96,775 55,000 12,600 34,000 5,250 94,250 20/05/2019
ANDRADE AGUILAR, VIRGINIA 48,900 3,600 39,000 5,250 96,750 48,900 3,600 39,000 3,300 94,800 20/05/2019
HERVÁS DEL PINO, CARMEN 55,000 4,950 39,000 2,750 96,750 55,000 4,950 39,000 1,800 95,800 20/05/2019
FERNANDEZ TRIVIÑO, RAQUEL MARIA 55,000 0,000 39,000 2,600 96,600 55,000 0,000 39,000 2,000 96,000 20/05/2019
LOBERA GOMEZ, VIRGINIA 53,100 0,400 36,000 7,100 96,600 53,100 0,400 36,000 5,900 95,400 20/05/2019
YÁÑEZ AUGUSTÍN, ANA BELÉN 29,100 36,800 39,000 2,600 96,600 29,100 36,800 39,000 2,300 96,300 20/05/2019
PEÑALVER MORA, FRANCISCO MANUEL 55,000 0,000 39,000 2,550 96,550 55,000 0,000 39,000 2,200 96,200 20/05/2019
MUÑOZ GARCÍA, Mª JESÚS 55,000 0,000 39,000 2,525 96,525 55,000 0,000 39,000 2,425 96,425 20/05/2019
NARANJO FABRA, EVA MARIA 55,000 4,200 36,000 5,500 96,500 55,000 4,200 36,000 3,800 94,800 20/05/2019
PÉREZ GUTIÉRREZ, SERGIO 52,500 0,000 42,000 2,000 96,500 52,500 0,000 42,000 2,000 96,500 20/05/2019
PERALTA GUTIERREZ DEL ALAMO, Mª VICTORIA 55,000 0,000 39,000 2,475 96,475 55,000 0,000 39,000 2,125 96,125 20/05/2019
GALLO LOPEZ, JUAN CARLOS 55,000 0,000 39,000 2,450 96,450 55,000 0,000 39,000 2,100 96,100 20/05/2019
PIÑA DE LA TORRE, SERGIO 55,000 0,300 36,000 5,450 96,450 55,000 0,300 36,000 2,650 93,650 20/05/2019
BLAZQUEZ LOZANO, NIEVES 55,000 0,000 39,000 2,425 96,425 55,000 0,000 39,000 2,425 96,425 20/05/2019
ALMENDRO JIMENEZ, MONICA 55,000 0,900 39,000 2,400 96,400 55,000 0,900 39,000 2,400 96,400 20/05/2019
ARAUJO GONZALEZ, ANA BELEN 55,000 23,100 39,000 2,400 96,400 55,000 23,100 39,000 2,400 96,400 20/05/2019
CRESPO MARTINEZ, CARMEN JOSEFA 55,000 0,000 36,000 5,400 96,400 55,000 0,000 36,000 4,400 95,400 20/05/2019
TRAVE HERNANDEZ, YOLANDA 55,000 0,600 39,000 2,400 96,400 55,000 0,600 39,000 2,200 96,200 20/05/2019
CABELLO PULIDO, JUANA 55,000 0,000 36,000 5,375 96,375 55,000 0,000 36,000 3,950 94,950 20/05/2019
GUZMAN LLANOS, MARIA JOSE 33,300 18,800 39,000 5,250 96,350 33,300 18,800 36,000 4,200 92,300 20/05/2019
JIMÉNEZ RUIZ, MERCEDES 45,300 0,000 36,000 15,000 96,300 45,300 0,000 36,000 0,000 81,300 20/05/2019
INFANTE CHACÓN, NURIA 47,700 0,000 36,000 12,550 96,250 47,700 0,000 36,000 7,900 91,600 20/05/2019
FERNANDEZ PIMENTEL, MARIA LIDIA 45,600 16,200 36,000 5,200 96,200 45,600 16,200 36,000 2,150 93,150 20/05/2019
MARTINEZ CASTAÑO, DOLORES 48,300 14,100 39,000 2,200 96,200 48,300 14,100 39,000 2,200 96,200 20/05/2019
MATEO SEGURA, JESUS 28,500 11,700 36,000 20,000 96,200 28,500 11,100 36,000 20,000 95,600 20/05/2019
RUZ VALENZUELA, JOSEFA 55,000 2,400 39,000 2,150 96,150 55,000 2,400 37,000 2,150 94,150 20/05/2019
GARRIDO VÁZQUEZ, ISABEL DEL CARMEN 55,000 0,000 38,000 3,125 96,125 55,000 0,000 38,000 2,550 95,550 20/05/2019
LAGARES GARCIA, CONCEPCION 55,000 0,000 39,000 2,100 96,100 55,000 0,000 39,000 2,000 96,000 20/05/2019
CARABALLO FRANCO, Mª DOLORES 55,000 0,400 39,000 2,050 96,050 55,000 0,400 39,000 2,000 96,000 20/05/2019
ESTEPA LOPEZ, MARIA TERESA 55,000 0,000 39,000 2,050 96,050 55,000 0,000 39,000 2,050 96,050 20/05/2019
GARCIA BARRIGA, ANTONIA JOSEFA 55,000 0,400 39,000 2,025 96,025 55,000 0,400 39,000 2,000 96,000 20/05/2019
GRANADOS REY, EVA Mª 55,000 0,000 39,000 2,025 96,025 55,000 0,000 39,000 1,125 95,125 20/05/2019
RODRIGUEZ ROCHA, DANIEL 55,000 1,400 39,000 2,025 96,025 55,000 1,400 36,000 2,000 93,000 20/05/2019
CHÍA DELGADO, JESÚS MARÍA 50,400 13,700 39,000 2,000 96,000 50,400 13,700 39,000 2,000 96,000 20/05/2019
FERNANDEZ RUIZ, ROSA MARIA 55,000 3,950 39,000 2,000 96,000 55,000 3,550 39,000 2,000 96,000 20/05/2019
GARCIA RUIZ, CRISTINA 55,000 21,900 39,000 2,000 96,000 55,000 21,900 39,000 2,000 96,000 20/05/2019

* Los candidatos marcados con un asterisco no alcanzan la nota mínima exigida una vez baremados

- Al posicionarse sobre el número de página le aparecerá el rango de notas de autobaremo que contiene dicha página

[1]  [2]  [3]  [4]  [5]  [6]  [7]  [8]  [9]  [10]  [11]  [12]  [13]  [14]  [15]  [16] 


Color de candidatos/as que por autobaremo alcanzan puntuación mínima para formar parte de la bolsa Candidatos/as que por autobaremo alcanzan puntuación mínima para formar parte de la bolsa

Color de Candidatos/as que no alcanzan puntuación mínima para formar parte de la bolsa Candidatos/as que no alcanzan puntuación mínima para formar parte de la bolsa



[Volver]